Tiempo atmosférico en la estación meteorológica de Biescas, Huesca (1100 m.)



Fecha
DESCASC
Temp. máxima en grados centígrados (hora)
DESCASC
Temp. mínima en grados centígrados (hora)
DESCASC
Temp. media en grados centígrados
DESCASC
Racha de viento máxima en m/sg (hora)
DESCASC
Velocidad máxima media en intervalos de 10 minutos(hora)
DESCASC
Precipitaciones diarias en mm
DESCASC
Precipitaciones de 00:00 a 06:00 en mm
DESCASC
Precipitaciones de 06:00 a 12:00 en mm
DESCASC
Precipitaciones de 12:00 a 18:00 en mm
DESCASC
Precipitaciones de 18:00 a 24:00 en mm
DESCASC
16-01-2020 10.1 (14:50) -2.7 (07:30) 3.7 6.39 (18:40) 2.5 (18:50) 0 0 0 0 0
15-01-2020 10.6 (13:20) -3.4 (05:10) 3.6 6.67 (17:10) 2.78 (13:30) 0 0 0 0 0
14-01-2020 9.8 (14:00) -3.3 (05:50) 3.3 7.22 (14:00) 3.06 (14:30) 0 0 0 0 0
13-01-2020 10.2 (14:20) -3.7 (06:50) 3.2 4.44 (14:20) 1.67 (14:30) 0 0 0 0 0
12-01-2020 10.5 (14:30) -3.8 (-00:0) 3.4 3.61 (14:20) 1.39 (14:20) 0 0 0 0 0
11-01-2020 8.5 (14:00) -3.2 (-00:0) 2.6 3.06 (00:10) 1.39 (12:50) 0 0 0 0 0
10-01-2020 8.4 (14:20) 0.3 (00:00) 4.3 9.44 (12:20) 3.33 (12:50) 0.6 0.6 0 0 0
09-01-2020 12.7 (14:30) -0.9 (-00:0) 5.9 6.11 (15:00) 2.5 (18:10) 0 0 0 0 0
08-01-2020 13 (14:20) 0.8 (00:00) 6.9 5.83 (16:40) 2.78 (15:30) 0 0 0 0 0
07-01-2020 11.9 (14:30) -0.9 (-00:0) 5.5 1.94 (13:20) 1.11 (13:20) 0 0 0 0 0
06-01-2020 11.4 (14:00) -1.4 (-00:0) 5 7.5 (14:10) 3.61 (14:10) 0 0 0 0 0
05-01-2020 14.2 (14:10) -0.1 (00:00) 7 2.78 (13:40) 1.39 (14:00) 0 0 0 0 0
04-01-2020 11.2 (13:10) -0.9 (-00:0) 5.1 4.17 (13:30) 1.39 (12:40) 0 0 0 0 0
03-01-2020 9.7 (15:10) -0.2 (00:00) 4.7 3.33 (16:00) 0.83 (14:30) 0 0 0 0 0
02-01-2020 11.3 (14:50) -2 (-00:0) 4.7 2.5 (15:10) 0.83 (15:10) 0 0 0 0 0
01-01-2020 10.6 (14:30) -2.1 (-00:0) 4.3 4.17 (15:10) 1.94 (15:10) 0 0 0 0 0
31-12-2019 11.7 (14:20) -0.5 (-00:0) 5.6 3.61 (14:00) 1.39 (14:00) 0 0 0 0 0
30-12-2019 -- (--) -- (--) -- -- (--) -- (--) -- 0 0 0 --
29-12-2019 11.1 (14:20) -1.1 (-00:0) 5 3.33 (14:30) 1.11 (14:20) 0 0 0 0 0
28-12-2019 14.6 (14:10) 0.7 (00:00) 7.7 1.67 (01:30) 0.83 (01:40) 0 0 0 0 0
27-12-2019 14.7 (14:00) -1 (-00:0) 6.8 2.78 (13:50) 1.11 (13:10) 0 0 0 0 0
26-12-2019 11.7 (14:20) -0.6 (-00:0) 5.5 7.22 (11:40) 2.5 (11:30) 0 0 0 0 0
25-12-2019 11.6 (14:10) 0.7 (00:00) 6.2 1.39 (23:30) 0.56 (08:00) 0 0 0 0 0
24-12-2019 13.5 (14:10) 1.7 (00:00) 7.6 6.67 (12:10) 2.78 (12:30) 0 0 0 0 0
23-12-2019 10.5 (16:10) 3 (00:00) 6.8 8.89 (00:20) 3.33 (00:20) 0 0 0 0 0
22-12-2019 8.7 (12:50) 2.8 (00:00) 5.7 8.89 (00:10) 4.17 (13:40) 14.4 4.4 1 5.2 3.8
21-12-2019 9.5 (17:10) 0.9 (00:00) 5.2 14.17 (20:00) 4.17 (19:00) 37.6 1.6 1.8 16.2 18
20-12-2019 9.3 (02:40) 2.3 (00:00) 5.8 15 (03:00) 5 (03:00) 111.8 73 10.2 5.2 23.4

Gráficas

Temp. máximas Temp. mínimas Temp. medias Precipitaciones Rachas de viento máximas Velocidades máximas media en intervalos de 10 minutos

Datos horarios

Fecha y hora oficial Temperatura (ºC) Velocidad del viento (km/h) Dirección del viento Racha (km/h) Dirección de racha Precipitación (mm) Presión (hPa) Tendencia (hPa) Humedad (%)
2020-01-18 23:00:00 2.2 0 Calma 4 Sudoeste 1 -- -- 86
2020-01-18 22:00:00 2.8 0 Calma 6 Noroeste 0 -- -- 87
2020-01-18 21:00:00 3.6 0 Calma 4 Norte 0 -- -- 74
2020-01-18 20:00:00 4.6 2 Este 12 Oeste 0 -- -- 68
2020-01-18 19:00:00 5.3 2 Sur 15 Oeste 0 -- -- 64
2020-01-18 18:00:00 6.2 3 Noroeste 13 Oeste 0 -- -- 55
2020-01-18 17:00:00 7.3 4 Sudeste 14 Sur 0 -- -- 40
2020-01-18 16:00:00 7.7 4 Sudeste 14 Sur 0 -- -- 37
2020-01-18 15:00:00 7.4 6 Este 22 Sudoeste 0 -- -- 42
2020-01-18 14:00:00 7.6 4 Norte 12 Nordeste 0 -- -- 37
2020-01-18 13:00:00 4.7 2 Norte 6 Este 0 -- -- 61
2020-01-18 12:00:00 2.7 3 Sudeste 5 Este 0 -- -- 72
2020-01-18 11:00:00 1.3 0 Calma 4 Este 0 -- -- 75
2020-01-18 10:00:00 0.6 0 Calma 4 Oeste 0 -- -- 80
2020-01-18 09:00:00 -0.2 0 Calma 5 Sudoeste 0 -- -- 85
2020-01-18 08:00:00 -0.1 0 Calma 3 Oeste 0 -- -- 87
2020-01-18 07:00:00 0.1 0 Calma 16 Oeste 0 -- -- 83
2020-01-18 06:00:00 -0.2 0 Calma 9 Noroeste 0 -- -- 84
2020-01-18 05:00:00 -0.2 4 Noroeste 18 Sur 0 -- -- 79
2020-01-18 04:00:00 -1.2 0 Calma 4 Sudoeste 0 -- -- 88
2020-01-18 03:00:00 -1.3 0 Calma 8 Norte 0 -- -- 84
2020-01-18 02:00:00 -0.7 3 Noroeste 14 Norte 0 -- -- 83
2020-01-18 01:00:00 -0.7 3 Noroeste 12 Norte 0 -- -- 81
2020-01-18 00:00:00 -0.5 5 Noroeste 12 Noroeste 0 -- -- 77
2020-01-17 23:00:00 -0.8 3 Noroeste 12 Noroeste 0 -- -- 86
2020-01-17 22:00:00 -0.6 2 Sur 6 Nordeste 0 -- -- 84
2020-01-17 21:00:00 0.3 2 Noroeste 13 Noroeste 0 -- -- 82
2020-01-17 20:00:00 2 5 Norte 23 Nordeste 0 -- -- 71
2020-01-17 19:00:00 1.3 6 Noroeste 23 Norte 0 -- -- 81
2020-01-17 18:00:00 1.3 2 Noroeste 9 Oeste 0 -- -- 86
2020-01-17 17:00:00 3.5 4 Oeste 15 Norte 0 -- -- 78
2020-01-17 16:00:00 4.1 5 Noroeste 17 Noroeste 0 -- -- 77
2020-01-17 15:00:00 4.8 6 Noroeste 27 Norte 0.4 -- -- 78
2020-01-17 14:00:00 5.4 0 Calma 7 Este 0 -- -- 91
2020-01-17 13:00:00 4.5 0 Calma 14 Sudeste 1.6 -- -- 93
2020-01-17 12:00:00 4.9 2 Sur 5 Sur 0.2 -- -- 94
2020-01-17 11:00:00 4 0 Calma 5 Sur 3.4 -- -- 97
2020-01-17 10:00:00 3.7 3 Nordeste 6 Noroeste 0.6 -- -- 97
2020-01-17 09:00:00 3.2 0 Calma 3 Sudeste 0 -- -- 96
2020-01-17 08:00:00 3.4 2 Noroeste 5 Noroeste 0 -- -- 96
2020-01-17 07:00:00 3.7 0 Calma 4 Norte 0 -- -- 95
2020-01-17 06:00:00 4.1 0 Calma 5 Sudoeste 0 -- -- 93
2020-01-17 05:00:00 4.3 3 Este 12 Sudeste 0.6 -- -- 91
2020-01-17 04:00:00 5 3 Norte 19 Sudoeste 2.2 -- -- 86
2020-01-17 03:00:00 6.2 5 Sur 18 Sur 1 -- -- 82
2020-01-17 02:00:00 7.7 3 Noroeste 11 Sudoeste 0 -- -- 67
2020-01-17 01:00:00 8 4 Nordeste 19 Sur 0 -- -- 69
2020-01-17 00:00:00 8.4 3 Noroeste 19 Este 0 -- -- 66
2020-01-16 23:00:00 7.3 0 Calma 10 Norte 0 -- -- 74
2020-01-16 22:00:00 8.6 3 Noroeste 18 Sudoeste 0 -- -- 69
2020-01-16 21:00:00 8.7 5 Noroeste 14 Noroeste 0 -- -- 70
2020-01-16 20:00:00 9 4 Norte 18 Sur 0 -- -- 66
2020-01-16 19:00:00 8.9 7 Sudoeste 23 Oeste 0 -- -- 68
2020-01-16 18:00:00 9.4 4 Sur 14 Sudeste 0 -- -- 62
2020-01-16 17:00:00 9.8 4 Oeste 17 Este 0 -- -- 61
2020-01-16 16:00:00 9.8 6 Este 17 Sudeste 0 -- -- 62
2020-01-16 15:00:00 10.1 4 Nordeste 17 Sudoeste 0 -- -- 61
2020-01-16 14:00:00 9.5 4 Nordeste 18 Oeste 0 -- -- 56
2020-01-16 13:00:00 6.9 0 Calma 6 Sudeste 0 -- -- 64
2020-01-16 12:00:00 3.8 0 Calma 6 Este 0 -- -- 68
2020-01-16 11:00:00 0.3 4 Sudeste 8 Sur 0 -- -- 86
2020-01-16 10:00:00 -2.3 0 Calma 3 Sudoeste 0 -- -- 92
2020-01-16 09:00:00 -2.6 0 Calma 3 Oeste 0 -- -- 92
2020-01-16 08:00:00 -2.6 0 Calma 4 Noroeste 0 -- -- 92
2020-01-16 07:00:00 -2.5 0 Calma 2 Oeste 0 -- -- 91
2020-01-16 06:00:00 -2.2 0 Calma 3 Norte 0 -- -- 91
2020-01-16 05:00:00 -1.9 0 Calma 3 Sudoeste 0 -- -- 91
2020-01-16 04:00:00 -1.5 0 Calma 3 Oeste 0 -- -- 91
2020-01-16 03:00:00 -1.2 0 Calma 3 Este 0 -- -- 90
2020-01-16 02:00:00 -0.8 0 Calma 3 Sudoeste 0 -- -- 89
2020-01-16 01:00:00 -0.2 0 Calma 3 Noroeste 0 -- -- 87
2020-01-16 00:00:00 0.6 0 Calma 3 Oeste 0 -- -- 85
2020-01-15 23:00:00 1.4 0 Calma 3 Norte 0 -- -- 81
2020-01-15 22:00:00 3.1 0 Calma 6 Norte 0 -- -- 76
2020-01-15 21:00:00 4.5 0 Calma 4 Norte 0 -- -- 74
2020-01-15 20:00:00 5.6 2 Sur 7 Sudeste 0 -- -- 71
2020-01-15 19:00:00 7 0 Calma 8 Oeste 0 -- -- 64
2020-01-15 18:00:00 8.2 3 Norte 24 Sudoeste 0 -- -- 58
2020-01-15 17:00:00 9.1 8 Sudoeste 19 Sudoeste 0 -- -- 53
2020-01-15 16:00:00 10 8 Sur 20 Oeste 0 -- -- 50
2020-01-15 15:00:00 9.9 5 Nordeste 19 Sudoeste 0 -- -- 49
2020-01-15 14:00:00 10.1 4 Norte 22 Sudeste 0 -- -- 47
2020-01-15 13:00:00 9.8 3 Este 10 Sudeste 0 -- -- 50
2020-01-15 12:00:00 5.2 0 Calma 7 Sudeste 0 -- -- 57
2020-01-15 11:00:00 0.7 2 Este 5 Este 0 -- -- 70
2020-01-15 10:00:00 -1.5 0 Calma 5 Sudeste 0 -- -- 76
2020-01-15 09:00:00 -2 3 Sudoeste 5 Sur 0 -- -- 74
2020-01-15 08:00:00 -2.3 2 Sudeste 4 Este 0 -- -- 74
2020-01-15 07:00:00 -2.9 0 Calma 5 Este 0 -- -- 78
2020-01-15 06:00:00 -3.1 0 Calma 4 Sur 0 -- -- 78
2020-01-15 05:00:00 -3.3 0 Calma 4 Noroeste 0 -- -- 78
2020-01-15 04:00:00 -3.2 0 Calma 4 Este 0 -- -- 77
2020-01-15 03:00:00 -3 0 Calma 5 Norte 0 -- -- 78
2020-01-15 02:00:00 -2.8 0 Calma 4 Sudoeste 0 -- -- 78
2020-01-15 01:00:00 -2.4 0 Calma 5 Norte 0 -- -- 77
2020-01-15 00:00:00 -2.2 0 Calma 5 Norte 0 -- -- 76
2020-01-14 23:00:00 -1.7 2 Nordeste 5 Norte 0 -- -- 75
2020-01-14 22:00:00 -1.6 2 Oeste 4 Sudeste 0 -- -- 73
2020-01-14 21:00:00 -0.9 0 Calma 4 Sudoeste 0 -- -- 69
2020-01-14 20:00:00 -0.1 0 Calma 4 Sudeste 0 -- -- 66
2020-01-14 19:00:00 1.3 0 Calma 4 Sudoeste 0 -- -- 62
2020-01-14 18:00:00 3.5 2 Sur 4 Sur 0 -- -- 53
2020-01-14 17:00:00 6.1 2 Nordeste 16 Noroeste 0 -- -- 45
2020-01-14 16:00:00 8.4 4 Noroeste 14 Este 0 -- -- 36
2020-01-14 15:00:00 9.6 5 Sudeste 22 Sudeste 0 -- -- 33
2020-01-14 14:00:00 9.8 9 Sur 26 Sur 0 -- -- 27
2020-01-14 13:00:00 8.6 7 Sudeste 19 Sudeste 0 -- -- 30
2020-01-14 12:00:00 4.6 0 Calma 4 Sudeste 0 -- -- 44
2020-01-14 11:00:00 0.2 0 Calma 4 Este 0 -- -- 53
2020-01-14 10:00:00 -2.5 0 Calma 3 Norte 0 -- -- 68
2020-01-14 09:00:00 -2.9 0 Calma 4 Noroeste 0 -- -- 68
2020-01-14 08:00:00 -3 0 Calma 4 Oeste 0 -- -- 68
2020-01-14 07:00:00 -3 0 Calma 4 Norte 0 -- -- 70
2020-01-14 06:00:00 -3.2 0 Calma 3 Noroeste 0 -- -- 71
2020-01-14 05:00:00 -3.2 0 Calma 5 Este 0 -- -- 71
2020-01-14 04:00:00 -3.1 0 Calma 3 Noroeste 0 -- -- 72
2020-01-14 03:00:00 -3.1 0 Calma 3 Norte 0 -- -- 71
2020-01-14 02:00:00 -2.6 0 Calma 5 Sur 0 -- -- 71
2020-01-14 01:00:00 -2.3 2 Oeste 4 Noroeste 0 -- -- 71
2020-01-14 00:00:00 -2.3 0 Calma 3 Oeste 0 -- -- 69
2020-01-13 23:00:00 -1.9 0 Calma 3 Oeste 0 -- -- 70
2020-01-13 22:00:00 -1.2 0 Calma -- -- 0 -- -- 66
2020-01-13 21:00:00 -0.3 0 Calma -- -- 0 -- -- 63
2020-01-13 20:00:00 0.5 0 Calma 2 Sur 0 -- -- 60
2020-01-13 19:00:00 1.6 0 Calma 4 Nordeste 0 -- -- 56
2020-01-13 18:00:00 3.6 0 Calma 6 Sur 0 -- -- 50
2020-01-13 17:00:00 6.5 2 Noroeste 4 Norte 0 -- -- 43
2020-01-13 16:00:00 8.6 0 Calma 15 Sudeste 0 -- -- 36
2020-01-13 15:00:00 9.7 6 Sudeste 16 Sudeste 0 -- -- 29
2020-01-13 14:00:00 9.6 4 Sudeste 8 Este 0 -- -- 34
2020-01-13 13:00:00 6.7 2 Nordeste 5 Sudeste 0 -- -- 42
2020-01-13 12:00:00 4.2 0 Calma 5 Sudeste 0 -- -- 61
2020-01-13 11:00:00 0.3 0 Calma 2 Sudeste 0 -- -- 71
2020-01-13 10:00:00 -2.1 0 Calma 4 Sudeste 0 -- -- 69
2020-01-13 09:00:00 -3.3 0 Calma 3 Norte 0 -- -- 69
2020-01-13 08:00:00 -3.5 0 Calma 4 Sur 0 -- -- 69
2020-01-13 07:00:00 -3.6 0 Calma 3 Oeste 0 -- -- 70
2020-01-13 06:00:00 -3.5 2 Noroeste 4 Noroeste 0 -- -- 70
2020-01-13 05:00:00 -3.5 0 Calma 3 Norte 0 -- -- 71
2020-01-13 04:00:00 -3.4 0 Calma 2 Norte 0 -- -- 71
2020-01-13 03:00:00 -3.2 0 Calma 2 Oeste 0 -- -- 70
2020-01-13 02:00:00 -2.9 0 Calma 4 Norte 0 -- -- 72
2020-01-13 01:00:00 -2.7 2 Noroeste 4 Sudeste 0 -- -- 71
2020-01-13 00:00:00 -2.5 0 Calma 5 Noroeste 0 -- -- 69
2020-01-12 23:00:00 -2.2 0 Calma 5 Noroeste 0 -- -- 70
2020-01-12 22:00:00 -1.9 0 Calma 2 Oeste 0 -- -- 69
2020-01-12 21:00:00 -1.2 0 Calma 3 Norte 0 -- -- 66
2020-01-12 20:00:00 -0.4 0 Calma 3 Noroeste 0 -- -- 65
2020-01-12 19:00:00 0.8 0 Calma 3 Noroeste 0 -- -- 60
2020-01-12 18:00:00 2.5 0 Calma 3 Noroeste 0 -- -- 54
2020-01-12 17:00:00 4.5 2 Sur 4 Sudeste 0 -- -- 47
2020-01-12 16:00:00 5.9 2 Sur 8 Sudeste 0 -- -- 43
2020-01-12 15:00:00 9.1 3 Sur 13 Sur 0 -- -- 37
2020-01-12 14:00:00 9.7 2 Nordeste 6 Este 0 -- -- 35
2020-01-12 13:00:00 7.4 0 Calma 6 Este 0 -- -- 42
2020-01-12 12:00:00 4.3 2 Norte 5 Norte 0 -- -- 45
2020-01-12 11:00:00 -0.2 0 Calma 5 Noroeste 0 -- -- 68
2020-01-12 10:00:00 -2.9 0 Calma 4 Oeste 0 -- -- 59
2020-01-12 09:00:00 -3.2 0 Calma 5 Este 0 -- -- 57
2020-01-12 08:00:00 -3.6 0 Calma 4 Sudoeste 0 -- -- 61
2020-01-12 07:00:00 -3.6 0 Calma 4 Este 0 -- -- 62
2020-01-12 06:00:00 -3.8 0 Calma 3 Oeste 0 -- -- 63
2020-01-12 05:00:00 -3.6 0 Calma 3 Norte 0 -- -- 65
2020-01-12 04:00:00 -3.6 0 Calma 4 Noroeste 0 -- -- 64
2020-01-12 03:00:00 -3.6 0 Calma 3 Noroeste 0 -- -- 69
2020-01-12 02:00:00 -3.6 0 Calma 4 Sudoeste 0 -- -- 66
2020-01-12 01:00:00 -3.4 0 Calma 4 Norte 0 -- -- 66
2020-01-12 00:00:00 -3.2 0 Calma 3 Noroeste 0 -- -- 66
2020-01-11 23:00:00 -2.9 0 Calma 4 Noroeste 0 -- -- 66
2020-01-11 22:00:00 -2.4 0 Calma 4 Oeste 0 -- -- 65
2020-01-11 21:00:00 -1.9 2 Oeste 4 Noroeste 0 -- -- 64
2020-01-11 20:00:00 -1.2 0 Calma 4 Noroeste 0 -- -- 62
2020-01-11 19:00:00 -0.3 0 Calma 4 Sudoeste 0 -- -- 60
2020-01-11 18:00:00 1.6 0 Calma 6 Norte 0 -- -- 53
2020-01-11 17:00:00 3.2 0 Calma 4 Noroeste 0 -- -- 48
2020-01-11 16:00:00 4.7 0 Calma 5 Sur 0 -- -- 46
2020-01-11 15:00:00 6.9 0 Calma 4 Sudeste 0 -- -- 45
2020-01-11 14:00:00 8.5 3 Sudeste 6 Este 0 -- -- 39
2020-01-11 13:00:00 6.3 4 Sudeste 11 Sur 0 -- -- 42
2020-01-11 12:00:00 3.9 2 Sudeste 6 Sudeste 0 -- -- 56
2020-01-11 11:00:00 -0.9 0 Calma 4 Este 0 -- -- 70
2020-01-11 10:00:00 -2.9 2 Oeste 4 Oeste 0 -- -- 65
2020-01-11 09:00:00 -2.9 0 Calma 5 Sudoeste 0 -- -- 60
2020-01-11 08:00:00 -2.7 2 Sur 4 Oeste 0 -- -- 60
2020-01-11 07:00:00 -2.5 0 Calma 5 Oeste 0 -- -- 61
2020-01-11 06:00:00 -2.2 0 Calma 5 Sudoeste 0 -- -- 61
2020-01-11 05:00:00 -3 0 Calma 5 Oeste 0 -- -- 67
2020-01-11 04:00:00 -3 0 Calma 5 Sudoeste 0 -- -- 70
2020-01-11 03:00:00 -2.5 0 Calma 6 Oeste 0 -- -- 72
2020-01-11 02:00:00 -1.9 0 Calma 4 Oeste 0 -- -- 71
2020-01-11 01:00:00 -1.2 2 Oeste 11 Este 0 -- -- 68
2020-01-11 00:00:00 0.3 4 Oeste 15 Oeste 0 -- -- 59
2020-01-10 23:00:00 0.6 3 Oeste 7 Nordeste 0 -- -- 63
2020-01-10 22:00:00 0.9 0 Calma 7 Noroeste 0 -- -- 62
2020-01-10 21:00:00 2 4 Noroeste 12 Oeste 0 -- -- 61
2020-01-10 20:00:00 2.7 3 Noroeste 12 Oeste 0 -- -- 57
2020-01-10 19:00:00 3 4 Noroeste 13 Norte 0 -- -- 61
2020-01-10 18:00:00 4.2 4 Noroeste 16 Norte 0 -- -- 52
2020-01-10 17:00:00 5.1 6 Norte 22 Oeste 0 -- -- 49
2020-01-10 16:00:00 6 7 Noroeste 28 Oeste 0 -- -- 51
2020-01-10 15:00:00 7.6 9 Noroeste 25 Oeste 0 -- -- 49
2020-01-10 14:00:00 7.8 6 Noroeste 29 Norte 0 -- -- 47
2020-01-10 13:00:00 7.8 10 Noroeste 34 Norte 0 -- -- 48
2020-01-10 12:00:00 6.6 12 Noroeste 30 Noroeste 0 -- -- 52
2020-01-10 11:00:00 5.5 8 Norte 29 Noroeste 0 -- -- 66
2020-01-10 10:00:00 2 3 Sudeste 22 Norte 0 -- -- 79
2020-01-10 09:00:00 1.5 3 Este 15 Norte 0 -- -- 81
2020-01-10 08:00:00 0.8 3 Sur 12 Noroeste 0 -- -- 87
2020-01-10 07:00:00 1.8 3 Oeste 11 Sudoeste 0 -- -- 77
2020-01-10 06:00:00 2.9 3 Noroeste 15 Noroeste 0 -- -- 74
2020-01-10 05:00:00 3.3 4 Noroeste 14 Norte 0 -- -- 75
2020-01-10 04:00:00 2.9 2 Oeste 5 Sur 0 -- -- 91
2020-01-10 03:00:00 3.3 2 Oeste 9 Noroeste 0 -- -- 90
2020-01-10 02:00:00 3.7 2 Norte 12 Este 0.4 -- -- 88
2020-01-10 01:00:00 4.7 4 Norte 19 Noroeste 0.2 -- -- 81
2020-01-10 00:00:00 4.8 3 Oeste 8 Sudoeste 0 -- -- 79
2020-01-09 23:00:00 5.5 0 Calma 9 Sur 0 -- -- 76
2020-01-09 22:00:00 6 3 Este 12 Norte 0 -- -- 74
2020-01-09 21:00:00 5.7 2 Noroeste 5 Sur 0 -- -- 76
2020-01-09 20:00:00 5.8 3 Nordeste 5 Sur 0 -- -- 73
2020-01-09 19:00:00 8 0 Calma 21 Oeste 0 -- -- 65
2020-01-09 18:00:00 10.4 4 Sudoeste 17 Este 0 -- -- 56
2020-01-09 17:00:00 11.1 6 Sur 18 Sudoeste 0 -- -- 54
2020-01-09 16:00:00 11.2 9 Oeste 18 Oeste 0 -- -- 54
2020-01-09 15:00:00 12.1 7 Oeste 22 Oeste 0 -- -- 49
2020-01-09 14:00:00 12.5 3 Este 15 Sudeste 0 -- -- 49
2020-01-09 13:00:00 8.6 2 Este 7 Este 0 -- -- 56
2020-01-09 12:00:00 5.9 0 Calma 4 Este 0 -- -- 70
2020-01-09 11:00:00 1.7 0 Calma 6 Sudeste 0 -- -- 88
2020-01-09 10:00:00 -0.4 0 Calma 3 Oeste 0 -- -- 88
2020-01-09 09:00:00 -0.6 0 Calma 4 Sur 0 -- -- 88
2020-01-09 08:00:00 -0.9 0 Calma 3 Noroeste 0 -- -- 89
2020-01-09 07:00:00 -0.8 0 Calma 3 Norte 0 -- -- 89
2020-01-09 06:00:00 -0.6 0 Calma 3 Noroeste 0 -- -- 90
2020-01-09 05:00:00 -0.4 0 Calma 3 Norte 0 -- -- 90
2020-01-09 04:00:00 -0.2 0 Calma 3 Oeste 0 -- -- 90
2020-01-09 03:00:00 -0.2 0 Calma 2 Noroeste 0 -- -- 90
2020-01-09 02:00:00 0.1 0 Calma 3 Sudoeste 0 -- -- 88
2020-01-09 01:00:00 0.4 0 Calma -- -- 0 -- -- 87
2020-01-09 00:00:00 0.8 0 Calma -- -- 0 -- -- 85
2020-01-08 23:00:00 1.3 0 Calma -- -- 0 -- -- 83
2020-01-08 22:00:00 2 0 Calma 0 Calma 0 -- -- 80
2020-01-08 21:00:00 2.7 0 Calma 3 Oeste 0 -- -- 77
2020-01-08 20:00:00 3.7 0 Calma 3 Oeste 0 -- -- 74
2020-01-08 19:00:00 5.2 0 Calma 2 Sudoeste 0 -- -- 69
2020-01-08 18:00:00 7.2 0 Calma 4 Sur 0 -- -- 62
2020-01-08 17:00:00 11.3 5 Sudoeste 21 Sudoeste 0 -- -- 47
2020-01-08 16:00:00 12 6 Sur 21 Sudoeste 0 -- -- 42
2020-01-08 15:00:00 12.7 3 Sur 17 Sudeste 0 -- -- 41
2020-01-08 14:00:00 12.8 6 Sudeste 13 Sudeste 0 -- -- 46
2020-01-08 13:00:00 11.6 8 Sudeste 15 Sur 0 -- -- 48
2020-01-08 12:00:00 8.5 2 Sudeste 8 Este 0 -- -- 66
2020-01-08 11:00:00 4.5 3 Nordeste 5 Norte 0 -- -- 76
2020-01-08 10:00:00 2.4 2 Noroeste 4 Noroeste 0 -- -- 80
2020-01-08 09:00:00 2.4 2 Noroeste 5 Sudoeste 0 -- -- 77
2020-01-08 08:00:00 2.6 0 Calma 4 Sudoeste 0 -- -- 75
2020-01-08 07:00:00 2.7 2 Noroeste 5 Oeste 0 -- -- 75
2020-01-08 06:00:00 3 0 Calma 4 Sudoeste 0 -- -- 72
2020-01-08 05:00:00 3.5 0 Calma 6 Este 0 -- -- 70
2020-01-08 04:00:00 3.7 2 Oeste 4 Sudoeste 0 -- -- 72
2020-01-08 03:00:00 3.8 2 Sudoeste 5 Este 0 -- -- 69
2020-01-08 02:00:00 3.5 0 Calma 5 Sudoeste 0 -- -- 67
2020-01-08 01:00:00 3.6 0 Calma 4 Oeste 0 -- -- 66
2020-01-08 00:00:00 3.5 2 Oeste 5 Este 0 -- -- 69
2020-01-07 23:00:00 4 0 Calma 4 Oeste 0 -- -- 67
2020-01-07 22:00:00 4.4 3 Sur 6 Sur 0 -- -- 64
2020-01-07 21:00:00 5.3 0 Calma 7 Sudoeste 0 -- -- 59
2020-01-07 20:00:00 5.4 0 Calma 5 Este 0 -- -- 61
2020-01-07 19:00:00 5.8 0 Calma 5 Noroeste 0 -- -- 57
2020-01-07 18:00:00 6.3 0 Calma 4 Noroeste 0 -- -- 54
2020-01-07 17:00:00 7.1 0 Calma 4 Oeste 0 -- -- 52
2020-01-07 16:00:00 8.2 0 Calma 3 Noroeste 0 -- -- 49
2020-01-07 15:00:00 10.7 0 Calma 6 Sudeste 0 -- -- 44
2020-01-07 14:00:00 11.3 3 Sudeste 7 Sudeste 0 -- -- 47
2020-01-07 13:00:00 9.9 2 Sudeste 5 Norte 0 -- -- 44
2020-01-07 12:00:00 6.9 0 Calma 5 Sudeste 0 -- -- 51
2020-01-07 11:00:00 3 0 Calma 3 Noroeste 0 -- -- 72
2020-01-07 10:00:00 1.4 2 Oeste 5 Sudoeste 0 -- -- 61
2020-01-07 09:00:00 0.1 2 Sur 4 Sur 0 -- -- 61
2020-01-07 08:00:00 -0.7 0 Calma 4 Sudoeste 0 -- -- 66
2020-01-07 07:00:00 -0.8 0 Calma 4 Sudoeste 0 -- -- 64
2020-01-07 06:00:00 -0.7 0 Calma 4 Norte 0 -- -- 61
2020-01-07 05:00:00 -0.6 0 Calma 3 Norte 0 -- -- 61
2020-01-07 04:00:00 -0.6 2 Norte 5 Oeste 0 -- -- 58
2020-01-07 03:00:00 -0.4 0 Calma 4 Noroeste 0 -- -- 57
2020-01-07 02:00:00 -0.1 0 Calma 4 Oeste 0 -- -- 57
2020-01-07 01:00:00 0.1 2 Noroeste 4 Nordeste 0 -- -- 58
2020-01-07 00:00:00 0.7 0 Calma 5 Nordeste 0 -- -- 55
2020-01-06 23:00:00 0.6 0 Calma 4 Sudoeste 0 -- -- 58
2020-01-06 22:00:00 0 0 Calma 5 Noroeste 0 -- -- 72
2020-01-06 21:00:00 0.3 0 Calma 6 Noroeste 0 -- -- 72
2020-01-06 20:00:00 1.1 2 Oeste 6 Oeste 0 -- -- 70
2020-01-06 19:00:00 2.1 2 Sudoeste 5 Sudeste 0 -- -- 66
2020-01-06 18:00:00 3.8 0 Calma 4 Oeste 0 -- -- 60
2020-01-06 17:00:00 5.7 0 Calma 4 Nordeste 0 -- -- 54
2020-01-06 16:00:00 8.3 3 Sur 15 Sur 0 -- -- 43
2020-01-06 15:00:00 9.9 6 Sur 27 Sudeste 0 -- -- 39
2020-01-06 14:00:00 11.4 7 Sudeste 19 Sudeste 0 -- -- 34
2020-01-06 13:00:00 9 0 Calma 3 Este 0 -- -- 45
2020-01-06 12:00:00 5.8 0 Calma 4 Sudeste 0 -- -- 61
2020-01-06 11:00:00 1.2 0 Calma 2 Sur 0 -- -- 73
2020-01-06 10:00:00 -1 0 Calma 3 Oeste 0 -- -- 69